Corydon, Indiana
Current Conditions -  °F | °C
As of 7:56 PM on Saturday 20 Dec 2014 (Local Time) from KSDF Reporting Station
Broken Clouds Broken Clouds  
Wind Chill: 27°   Ceiling: 25000
Heat Index: 32°   Visibility: 8mi
Dew Point: 25°   Wind: 5mph
Humidity: 75%   Direction: 10°N
Pressure: 30.3"   Gusts: NA
Location:  38.21°N, 86.12°W
Report Text: KSDF 210056Z 01004KT 8SM FEW065 BKN250 00/M04 A3030 RMK AO2 SLP264 T00001039
Loading
Personal Weather Stations






























Interactive Weather Map New forecast layout! Learn more

10-Day Weather Forecast

Advertisements
Track Severe Weather on mobile